Time;durP1;ratioP1;P1;durP2;ratioP2;P2;SDS_P1;SDS_P2;PMS_P1;PMS_P2;Temp;Humidity;BMP_temperature;BMP_pressure;BME280_temperature;BME280_humidity;BME280_pressure;Samples;Min_cycle;Max_cycle;Signal;HPM_P1;HPM_P2
2023/12/26 00:01:48;;;;;;;0.40;0.40;;;;;;;12.74;87.06;98511.75;4955625;28;20093;-77
2023/12/26 00:04:15;;;;;;;0.60;0.30;;;;;;;12.74;87.15;98500.34;4956644;28;20065;-78
2023/12/26 00:06:45;;;;;;;0.63;0.30;;;;;;;12.74;87.13;98505.63;4974230;28;20055;-77
2023/12/26 00:09:12;;;;;;;0.30;0.30;;;;;;;12.74;87.05;98511.75;4953774;28;20053;-78
2023/12/26 00:11:43;;;;;;;0.30;0.30;;;;;;;12.72;87.03;98523.41;4954678;28;20051;-77
2023/12/26 00:14:10;;;;;;;0.30;0.30;;;;;;;12.72;87.20;98511.06;4954840;29;20109;-77
2023/12/26 00:16:39;;;;;;;0.52;0.30;;;;;;;12.72;87.10;98511.06;4954651;28;20055;-79
2023/12/26 00:19:06;;;;;;;0.85;0.30;;;;;;;12.70;87.18;98499.78;4937031;29;20051;-78
2023/12/26 00:21:33;;;;;;;0.20;0.20;;;;;;;12.71;87.08;98492.69;4973353;28;20066;-77
2023/12/26 00:24:00;;;;;;;0.20;0.20;;;;;;;12.72;87.16;98502.28;4974126;28;20452;-78
2023/12/26 00:29:49;;;;;;;0.30;0.30;;;;;;;12.70;86.96;98489.22;5430024;22;20049;-76
2023/12/26 00:32:17;;;;;;;0.47;0.40;;;;;;;12.72;87.08;98491.72;5018001;28;20081;-76
2023/12/26 00:34:43;;;;;;;0.52;0.30;;;;;;;12.71;87.21;98504.06;5013347;28;20136;-77
2023/12/26 00:37:11;;;;;;;1.27;0.30;;;;;;;12.70;87.08;98488.38;5013018;28;20058;-76
2023/12/26 00:39:37;;;;;;;0.25;0.25;;;;;;;12.67;87.15;98481.56;5013072;28;20050;-77
2023/12/26 00:42:04;;;;;;;2.08;0.22;;;;;;;12.70;87.01;98494.50;5020598;28;20046;-77
2023/12/26 00:44:31;;;;;;;0.40;0.40;;;;;;;12.69;87.16;98486.69;5012931;28;20613;-77
2023/12/26 00:46:57;;;;;;;0.45;0.43;;;;;;;12.66;87.20;98485.16;4995640;28;20058;-77
2023/12/26 00:49:24;;;;;;;1.27;0.30;;;;;;;12.67;87.26;98488.66;5012859;28;20050;-77
2023/12/26 00:51:52;;;;;;;0.20;0.20;;;;;;;12.67;87.00;98486.00;5021116;28;20064;-78
2023/12/26 00:54:19;;;;;;;0.65;0.40;;;;;;;12.64;87.11;98487.94;5013082;28;20136;-77
2023/12/26 00:56:46;;;;;;;0.20;0.20;;;;;;;12.66;87.21;98487.81;5012653;28;20046;-78
2023/12/26 00:59:12;;;;;;;1.58;0.60;;;;;;;12.66;87.29;98495.72;5020337;28;20403;-78
2023/12/26 01:01:39;;;;;;;0.28;0.28;;;;;;;12.67;87.23;98501.84;5012630;28;20062;-78
2023/12/26 01:04:06;;;;;;;0.40;0.30;;;;;;;12.67;87.20;98505.31;5012598;28;20073;-78
2023/12/26 01:06:33;;;;;;;0.25;0.25;;;;;;;12.67;87.00;98496.56;5012282;28;20050;-78
2023/12/26 01:08:59;;;;;;;0.20;0.20;;;;;;;12.66;87.24;98523.91;5020905;28;20046;-79
2023/12/26 01:11:26;;;;;;;0.20;0.20;;;;;;;12.64;87.08;98511.69;5012097;28;20458;-79
2023/12/26 01:13:52;;;;;;;2.72;0.28;;;;;;;12.66;87.19;98505.44;5011857;28;20042;-78
2023/12/26 01:16:19;;;;;;;2.70;0.40;;;;;;;12.64;87.02;98498.50;5011744;28;20104;-76
2023/12/26 01:18:46;;;;;;;0.63;0.30;;;;;;;12.64;87.02;98506.41;5018755;28;20053;-80
2023/12/26 01:21:12;;;;;;;1.20;0.40;;;;;;;12.63;87.37;98512.66;5011411;28;20060;-77
2023/12/26 01:23:39;;;;;;;0.20;0.20;;;;;;;12.64;87.27;98509.06;5011604;28;20050;-78
2023/12/26 01:26:06;;;;;;;0.20;0.20;;;;;;;12.64;87.03;98509.06;5011685;28;20577;-77
2023/12/26 01:28:32;;;;;;;0.40;0.22;;;;;;;12.61;87.00;98505.84;5015749;28;20049;-78
2023/12/26 01:30:59;;;;;;;1.42;0.32;;;;;;;12.60;86.83;98522.66;5014592;28;20045;-76
2023/12/26 01:33:26;;;;;;;0.30;0.30;;;;;;;12.58;86.90;98506.94;5011263;28;20056;-77
2023/12/26 01:35:52;;;;;;;0.22;0.22;;;;;;;12.57;86.90;98507.09;5011143;28;20053;-78
2023/12/26 01:38:19;;;;;;;0.17;0.17;;;;;;;12.56;86.92;98513.34;5011184;28;20053;-78
2023/12/26 01:40:46;;;;;;;0.45;0.45;;;;;;;12.56;86.75;98550.28;5019396;28;20128;-77
2023/12/26 01:43:12;;;;;;;0.30;0.30;;;;;;;12.54;86.64;98539.00;5011191;28;20088;-79
2023/12/26 01:45:39;;;;;;;0.30;0.30;;;;;;;12.51;86.66;98540.97;5011182;28;20081;-77
2023/12/26 01:48:07;;;;;;;0.30;0.30;;;;;;;12.52;86.52;98547.06;5010803;28;20490;-77
2023/12/26 01:50:35;;;;;;;0.28;0.25;;;;;;;12.52;86.47;98539.13;5022453;28;20387;-78
2023/12/26 01:53:02;;;;;;;0.30;0.30;;;;;;;12.52;86.26;98552.34;5011074;28;20140;-76
2023/12/26 01:55:29;;;;;;;0.30;0.30;;;;;;;12.52;86.35;98557.59;5011049;28;20088;-78
2023/12/26 01:57:57;;;;;;;1.27;0.30;;;;;;;12.49;86.12;98549.97;4993451;28;20085;-77
2023/12/26 02:00:24;;;;;;;0.55;0.43;;;;;;;12.48;86.28;98545.63;5018907;28;20058;-80
2023/12/26 02:02:52;;;;;;;0.82;0.40;;;;;;;12.47;86.15;98541.34;5010378;28;20130;-77
2023/12/26 02:05:20;;;;;;;0.57;0.22;;;;;;;12.46;86.40;98540.50;5010988;28;20134;-77
2023/12/26 02:07:47;;;;;;;0.40;0.40;;;;;;;12.47;86.16;98551.88;5010545;28;20130;-77
2023/12/26 02:10:13;;;;;;;0.35;0.35;;;;;;;12.43;86.20;98553.13;5016890;28;20048;-77
2023/12/26 02:12:40;;;;;;;1.35;0.50;;;;;;;12.45;86.29;98559.13;5012206;28;20069;-78
2023/12/26 02:15:07;;;;;;;0.30;0.30;;;;;;;12.40;86.25;98551.56;5010443;28;20522;-77
2023/12/26 02:17:34;;;;;;;0.65;0.40;;;;;;;12.40;86.08;98558.69;5010752;28;20064;-77
2023/12/26 02:20:01;;;;;;;0.35;0.25;;;;;;;12.36;85.75;98556.28;5012329;28;20100;-77
2023/12/26 02:22:29;;;;;;;0.30;0.30;;;;;;;12.37;85.96;98559.75;5012928;28;20096;-76
2023/12/26 02:24:55;;;;;;;0.45;0.40;;;;;;;12.35;86.19;98559.03;5030409;28;20057;-79
2023/12/26 02:27:29;;;;;;;0.40;0.30;;;;;;;12.32;85.42;98544.31;5030369;28;20477;-77
2023/12/26 02:29:58;;;;;;;0.50;0.50;;;;;;;12.34;85.58;98545.00;5012643;28;20061;-76
2023/12/26 02:32:26;;;;;;;0.40;0.40;;;;;;;12.32;85.86;98560.13;5011817;28;20748;-77
2023/12/26 02:35:00;;;;;;;0.63;0.40;;;;;;;12.32;85.96;98554.88;5029994;28;20498;-77
2023/12/26 02:37:27;;;;;;;0.65;0.50;;;;;;;12.34;85.97;98528.34;5030371;28;20041;-79
2023/12/26 02:39:54;;;;;;;0.50;0.50;;;;;;;12.33;85.70;98556.53;5012923;28;20054;-76
2023/12/26 02:42:22;;;;;;;0.60;0.60;;;;;;;12.32;85.78;98570.69;5030042;28;20107;-79
2023/12/26 02:44:49;;;;;;;0.60;0.60;;;;;;;12.30;85.90;98559.41;5014541;28;20104;-77
2023/12/26 02:47:15;;;;;;;0.60;0.60;;;;;;;12.29;86.03;98549.84;5010410;28;20483;-77
2023/12/26 02:49:42;;;;;;;0.68;0.68;;;;;;;12.29;86.04;98549.03;5010322;28;20057;-77
2023/12/26 02:52:09;;;;;;;0.55;0.52;;;;;;;12.29;85.92;98556.94;5010414;28;20058;-77
2023/12/26 02:54:36;;;;;;;0.90;0.70;;;;;;;12.28;85.85;98548.16;5017557;28;20557;-77
2023/12/26 02:57:02;;;;;;;1.42;0.95;;;;;;;12.27;85.94;98540.38;5014855;28;20101;-78
2023/12/26 02:59:29;;;;;;;0.50;0.50;;;;;;;12.28;86.13;98547.31;5010268;28;20145;-77
2023/12/26 03:01:57;;;;;;;0.65;0.65;;;;;;;12.23;85.93;98558.28;5010425;28;20546;-77
2023/12/26 03:04:24;;;;;;;0.70;0.70;;;;;;;12.24;85.85;98546.75;5016243;28;20581;-78
2023/12/26 03:06:50;;;;;;;0.60;0.60;;;;;;;12.25;85.99;98572.16;5030035;28;20054;-77
2023/12/26 03:09:17;;;;;;;0.60;0.60;;;;;;;12.24;85.87;98557.31;5018061;28;20085;-76
2023/12/26 03:11:43;;;;;;;0.75;0.65;;;;;;;12.23;85.57;98572.28;5010328;28;20046;-79
2023/12/26 03:14:11;;;;;;;0.52;0.52;;;;;;;12.22;85.62;98552.16;5014766;28;20038;-77
2023/12/26 03:16:38;;;;;;;0.82;0.50;;;;;;;12.22;85.74;98567.97;5033845;28;20053;-77
2023/12/26 03:19:04;;;;;;;0.63;0.60;;;;;;;12.22;85.68;98573.25;5033535;28;20049;-76
2023/12/26 03:21:31;;;;;;;0.60;0.60;;;;;;;12.22;85.66;98589.09;5032253;28;20045;-77
2023/12/26 03:23:58;;;;;;;1.08;0.60;;;;;;;12.22;85.59;98596.16;5033673;28;20134;-77
2023/12/26 03:26:24;;;;;;;0.55;0.55;;;;;;;12.22;85.66;98611.97;5024546;28;20513;-76
2023/12/26 03:28:51;;;;;;;0.77;0.60;;;;;;;12.22;85.70;98612.84;5013554;28;20517;-77
2023/12/26 03:31:17;;;;;;;0.65;0.50;;;;;;;12.23;85.64;98640.06;5013831;28;20132;-75
2023/12/26 03:33:44;;;;;;;1.02;0.63;;;;;;;12.23;85.50;98634.78;5013816;28;20049;-78
2023/12/26 03:36:11;;;;;;;0.50;0.50;;;;;;;12.24;85.63;98633.81;5013666;28;20096;-76
2023/12/26 03:38:37;;;;;;;1.13;0.60;;;;;;;12.23;85.22;98640.06;5013232;28;20498;-76
2023/12/26 03:41:04;;;;;;;1.30;0.65;;;;;;;12.21;84.97;98657.81;5010819;28;20537;-80
2023/12/26 03:43:31;;;;;;;1.48;0.50;;;;;;;12.20;84.74;98659.63;5023065;28;20050;-79
2023/12/26 03:45:57;;;;;;;1.23;0.45;;;;;;;12.19;84.50;98671.13;5013389;28;20046;-76
2023/12/26 03:48:24;;;;;;;2.15;0.57;;;;;;;12.15;84.29;98664.41;5013226;28;20050;-77
2023/12/26 03:50:51;;;;;;;1.48;0.50;;;;;;;12.12;83.62;98649.69;5013054;28;20055;-78
2023/12/26 03:53:17;;;;;;;4.72;0.70;;;;;;;12.09;83.34;98671.06;5013189;28;20096;-76
2023/12/26 03:55:46;;;;;;;1.60;0.50;;;;;;;12.04;83.24;98652.06;5014712;28;20058;-77
2023/12/26 03:58:13;;;;;;;13.60;0.57;;;;;;;12.01;83.18;98657.59;5013073;28;20053;-77
2023/12/26 04:00:45;;;;;;;1.55;0.70;;;;;;;11.97;83.48;98661.47;5013196;28;20089;-78
2023/12/26 04:03:12;;;;;;;2.10;0.57;;;;;;;11.93;83.06;98667.94;4995707;28;20046;-76
2023/12/26 04:05:39;;;;;;;1.35;0.55;;;;;;;11.90;83.31;98673.44;5013135;28;20434;-77
2023/12/26 04:08:06;;;;;;;1.55;0.70;;;;;;;11.85;83.44;98677.28;5012973;28;20072;-81
2023/12/26 04:10:32;;;;;;;4.68;0.70;;;;;;;11.83;83.66;98689.78;5014913;28;20089;-76
2023/12/26 04:12:59;;;;;;;4.00;0.57;;;;;;;11.81;83.67;98693.50;5032605;28;20089;-77
2023/12/26 04:15:25;;;;;;;3.88;0.90;;;;;;;11.79;83.73;98685.69;5032671;28;20057;-76
2023/12/26 04:17:52;;;;;;;2.50;0.80;;;;;;;11.77;84.18;98686.78;5032419;28;20056;-77
2023/12/26 04:20:19;;;;;;;2.67;0.98;;;;;;;11.76;83.91;98696.47;5032287;28;20075;-78
2023/12/26 04:22:45;;;;;;;3.33;0.95;;;;;;;11.75;84.10;98686.91;5032524;28;20071;-77
2023/12/26 04:25:12;;;;;;;6.60;0.90;;;;;;;11.74;84.07;98687.88;5023383;28;20125;-79
2023/12/26 04:27:38;;;;;;;3.67;1.10;;;;;;;11.72;84.09;98700.31;5032119;28;20052;-77
2023/12/26 04:30:06;;;;;;;7.50;1.50;;;;;;;11.72;84.07;98705.59;5032494;28;20662;-77
2023/12/26 04:32:33;;;;;;;2.22;0.80;;;;;;;11.72;84.04;98724.03;5014649;28;20088;-77
2023/12/26 04:34:59;;;;;;;4.68;0.98;;;;;;;11.70;84.27;98707.53;5032070;28;20049;-76
2023/12/26 04:37:26;;;;;;;2.97;0.95;;;;;;;11.69;84.35;98719.84;5032099;28;20710;-77
2023/12/26 04:39:53;;;;;;;3.17;0.80;;;;;;;11.69;84.31;98716.38;5007625;28;20116;-76
2023/12/26 04:42:19;;;;;;;4.10;0.98;;;;;;;11.68;84.30;98730.50;5012409;28;20116;-75
2023/12/26 04:44:46;;;;;;;7.00;1.17;;;;;;;11.67;84.18;98728.84;5012291;28;20169;-77
2023/12/26 04:47:13;;;;;;;6.00;1.23;;;;;;;11.66;84.05;98716.63;5012010;28;20512;-79
2023/12/26 04:49:40;;;;;;;5.38;0.93;;;;;;;11.66;83.92;98719.28;4994730;28;20443;-76
2023/12/26 04:52:07;;;;;;;3.90;0.80;;;;;;;11.63;83.65;98727.41;5012205;28;20124;-77
2023/12/26 04:54:33;;;;;;;4.70;1.30;;;;;;;11.63;83.34;98732.69;5018336;28;20464;-79
2023/12/26 04:57:00;;;;;;;4.28;1.20;;;;;;;11.59;83.58;98724.19;5014079;28;20095;-77
2023/12/26 04:59:26;;;;;;;3.03;1.00;;;;;;;11.57;83.28;98728.72;5031403;28;20053;-77
2023/12/26 05:01:53;;;;;;;3.92;1.02;;;;;;;11.55;83.28;98749.91;5031478;28;20054;-77
2023/12/26 05:04:19;;;;;;;5.28;1.05;;;;;;;11.54;83.37;98747.41;5031484;28;20509;-79
2023/12/26 05:06:46;;;;;;;4.60;0.95;;;;;;;11.52;83.59;98741.41;5031518;28;20544;-78
2023/12/26 05:09:16;;;;;;;5.32;1.20;;;;;;;11.50;83.25;98753.84;5018889;28;20061;-75
2023/12/26 05:11:42;;;;;;;7.35;1.65;;;;;;;11.49;83.58;98750.41;5011718;28;20054;-77
2023/12/26 05:14:09;;;;;;;6.00;1.20;;;;;;;11.49;83.50;98760.94;5011811;28;20411;-80
2023/12/26 05:16:42;;;;;;;5.47;1.10;;;;;;;11.45;82.64;98757.69;5011866;28;20072;-78
2023/12/26 05:19:11;;;;;;;3.55;0.90;;;;;;;11.46;83.43;98771.72;5011433;28;20491;-76
2023/12/26 05:21:38;;;;;;;6.07;1.38;;;;;;;11.46;83.61;98788.38;5011693;28;20045;-77
2023/12/26 05:24:05;;;;;;;5.60;1.45;;;;;;;11.47;83.52;98797.09;5024657;28;20107;-79
2023/12/26 05:26:39;;;;;;;6.10;1.30;;;;;;;11.44;81.68;98802.63;5031240;28;20060;-76
2023/12/26 05:29:07;;;;;;;2.95;0.98;;;;;;;11.43;82.02;98803.56;5030785;28;20041;-78
2023/12/26 05:31:33;;;;;;;3.60;0.82;;;;;;;11.40;81.90;98804.63;5030932;28;20103;-77
2023/12/26 05:34:03;;;;;;;6.38;0.90;;;;;;;11.35;80.55;98814.69;5031178;28;20111;-78
2023/12/26 05:36:30;;;;;;;5.32;0.98;;;;;;;11.32;81.12;98830.72;5029114;28;20049;-77
2023/12/26 05:38:58;;;;;;;3.80;0.95;;;;;;;11.25;80.46;98834.78;5010447;28;20557;-76
2023/12/26 05:41:25;;;;;;;7.93;1.13;;;;;;;11.21;80.37;98848.19;5011001;28;20112;-77
2023/12/26 05:43:52;;;;;;;6.50;1.00;;;;;;;11.15;80.37;98851.28;5018737;28;20457;-78
2023/12/26 05:46:20;;;;;;;3.65;0.80;;;;;;;11.11;80.61;98852.47;5011124;28;20053;-78
2023/12/26 05:48:47;;;;;;;5.97;1.02;;;;;;;11.06;80.80;98851.94;5011033;28;20107;-77
2023/12/26 05:51:14;;;;;;;3.60;1.00;;;;;;;11.01;80.62;98857.56;5010928;28;20100;-77
2023/12/26 05:53:40;;;;;;;3.80;1.10;;;;;;;10.99;80.60;98861.25;5016207;28;20484;-77
2023/12/26 05:56:07;;;;;;;7.03;1.08;;;;;;;10.94;80.37;98864.22;5018009;28;20042;-79
2023/12/26 05:58:34;;;;;;;9.10;1.73;;;;;;;10.90;80.29;98862.75;5030217;28;20077;-77
2023/12/26 06:01:01;;;;;;;2.15;1.00;;;;;;;10.87;80.30;98860.38;5030810;28;20049;-76
2023/12/26 06:03:28;;;;;;;5.82;1.17;;;;;;;10.82;80.13;98865.97;5029414;28;20112;-78
2023/12/26 06:05:55;;;;;;;6.88;1.40;;;;;;;10.76;80.09;98867.25;5023263;28;20052;-78
2023/12/26 06:08:22;;;;;;;2.90;0.85;;;;;;;10.72;79.97;98871.03;5030250;28;20564;-77
2023/12/26 06:10:48;;;;;;;9.48;1.17;;;;;;;10.68;79.80;98885.38;5030325;28;20052;-78
2023/12/26 06:13:15;;;;;;;6.88;1.40;;;;;;;10.64;80.02;98881.28;5030644;28;20049;-76
2023/12/26 06:15:42;;;;;;;4.68;1.27;;;;;;;10.59;79.73;98884.25;4996191;28;20505;-78
2023/12/26 06:18:08;;;;;;;6.88;1.35;;;;;;;10.54;80.13;98892.47;5022268;28;20057;-78
2023/12/26 06:20:35;;;;;;;6.57;1.10;;;;;;;10.51;80.03;98894.50;5030604;28;20045;-77
2023/12/26 06:23:02;;;;;;;6.18;1.05;;;;;;;10.47;79.97;98899.09;5030764;28;20137;-76
2023/12/26 06:25:29;;;;;;;7.10;1.20;;;;;;;10.42;79.85;98894.16;5021553;28;20054;-80
2023/12/26 06:30:23;;;;;;;10.73;1.38;;;;;;;10.36;80.08;98920.06;5097511;22;20056;-79
2023/12/26 06:32:51;;;;;;;6.90;1.33;;;;;;;10.33;80.67;98925.50;5012748;28;20057;-87
2023/12/26 06:35:20;;;;;;;4.53;1.50;;;;;;;10.32;80.81;98931.72;5029481;28;20048;-88
2023/12/26 06:37:47;;;;;;;5.85;1.20;;;;;;;10.32;81.03;98937.00;5030305;28;20049;-87
2023/12/26 06:40:13;;;;;;;6.43;1.38;;;;;;;10.32;81.42;98944.88;5030610;28;20127;-80
2023/12/26 06:42:40;;;;;;;2.80;1.10;;;;;;;10.32;81.38;98942.25;5013048;28;20153;-78
2023/12/26 06:45:07;;;;;;;6.15;1.40;;;;;;;10.32;81.55;98947.50;5026799;28;20042;-87
2023/12/26 06:47:33;;;;;;;7.32;1.10;;;;;;;10.35;81.96;98952.56;5010235;28;20054;-81
2023/12/26 06:50:00;;;;;;;6.82;1.73;;;;;;;10.37;82.03;98963.81;5013512;28;20498;-78
2023/12/26 06:52:26;;;;;;;7.70;1.15;;;;;;;10.39;81.92;98961.94;5013926;28;20519;-84
2023/12/26 06:54:53;;;;;;;5.10;1.35;;;;;;;10.42;81.98;98965.19;5014239;28;20049;-86
2023/12/26 06:57:19;;;;;;;12.35;1.73;;;;;;;10.45;81.78;98977.31;5032341;28;20473;-81
2023/12/26 06:59:48;;;;;;;4.63;1.30;;;;;;;10.48;81.84;98981.53;5033648;28;20057;-84
2023/12/26 07:02:15;;;;;;;4.63;1.02;;;;;;;10.51;81.94;98984.78;5016126;28;20137;-85
2023/12/26 07:04:43;;;;;;;4.90;1.50;;;;;;;10.52;81.54;98989.13;5033843;28;20480;-88
2023/12/26 07:07:10;;;;;;;4.43;1.30;;;;;;;10.54;81.79;98984.56;5019418;28;20045;-84
2023/12/26 07:09:37;;;;;;;5.78;1.92;;;;;;;10.57;81.46;98998.47;5014172;28;20089;-83
2023/12/26 07:12:05;;;;;;;3.70;1.20;;;;;;;10.59;81.42;98991.31;5014378;28;20080;-88
2023/12/26 07:14:31;;;;;;;5.47;1.20;;;;;;;10.61;81.28;98997.31;5014303;28;20062;-85
2023/12/26 07:16:58;;;;;;;4.78;1.17;;;;;;;10.62;81.02;99004.25;5023571;28;20054;-85
2023/12/26 07:19:24;;;;;;;6.60;1.30;;;;;;;10.60;80.80;99025.41;5033632;28;20053;-87
2023/12/26 07:21:51;;;;;;;7.10;1.63;;;;;;;10.60;80.66;99029.81;5033985;28;20060;-80
2023/12/26 07:24:18;;;;;;;6.70;1.80;;;;;;;10.59;80.43;99036.03;5033831;28;20545;-86
2023/12/26 07:26:44;;;;;;;11.80;1.50;;;;;;;10.59;80.52;99034.25;5028672;28;20041;-87
2023/12/26 07:29:17;;;;;;;7.97;1.58;;;;;;;10.59;80.65;99033.41;5013914;28;20144;-83
2023/12/26 07:31:43;;;;;;;10.82;1.42;;;;;;;10.58;80.33;99043.09;5013808;28;20085;-86
2023/12/26 07:34:10;;;;;;;7.10;1.50;;;;;;;10.57;80.38;99051.09;5013500;28;20523;-84
2023/12/26 07:36:37;;;;;;;9.55;1.60;;;;;;;10.54;80.03;99057.41;5014531;28;20057;-86
2023/12/26 07:39:05;;;;;;;10.02;1.65;;;;;;;10.54;80.31;99055.63;5033327;28;20054;-87
2023/12/26 07:41:31;;;;;;;4.15;1.52;;;;;;;10.52;80.02;99065.41;5033337;28;20056;-81
2023/12/26 07:43:59;;;;;;;8.50;1.55;;;;;;;10.51;80.19;99074.25;5033465;28;20049;-79
2023/12/26 07:46:25;;;;;;;8.75;1.55;;;;;;;10.50;80.23;99062.03;5033290;28;20053;-83
2023/12/26 07:48:52;;;;;;;7.55;1.58;;;;;;;10.49;80.10;99075.28;5016520;28;20581;-81
2023/12/26 07:51:19;;;;;;;5.60;1.13;;;;;;;10.47;80.15;99082.47;5025003;28;20038;-84
2023/12/26 07:53:47;;;;;;;13.23;1.67;;;;;;;10.46;80.04;99102.66;5032898;28;20052;-83
2023/12/26 07:56:14;;;;;;;5.93;1.40;;;;;;;10.45;79.93;99082.56;5033015;28;20103;-83
2023/12/26 07:58:41;;;;;;;12.55;1.90;;;;;;;10.42;79.71;99090.63;5013931;28;20049;-85
2023/12/26 08:01:08;;;;;;;7.75;1.40;;;;;;;10.41;79.65;99102.94;5014797;28;20206;-82
2023/12/26 08:03:35;;;;;;;6.82;1.48;;;;;;;10.42;79.91;99096.75;5033167;28;20135;-82
2023/12/26 08:06:01;;;;;;;6.93;1.50;;;;;;;10.43;80.06;99102.81;5033173;28;20046;-84
2023/12/26 08:08:28;;;;;;;11.15;1.55;;;;;;;10.41;79.94;99110.00;5025757;28;20100;-81
2023/12/26 08:10:55;;;;;;;11.93;2.00;;;;;;;10.40;79.78;99121.47;5013117;28;20136;-82
2023/12/26 08:13:21;;;;;;;8.88;2.08;;;;;;;10.38;79.75;99116.31;5012965;28;20137;-83
2023/12/26 08:15:47;;;;;;;8.63;1.70;;;;;;;10.39;79.47;99127.69;5012642;28;20060;-83
2023/12/26 08:18:14;;;;;;;8.85;1.63;;;;;;;10.36;79.24;99123.44;5014492;28;20089;-82
2023/12/26 08:20:41;;;;;;;6.38;1.67;;;;;;;10.37;79.51;99127.78;5032382;28;20136;-83
2023/12/26 08:23:08;;;;;;;7.25;1.55;;;;;;;10.36;79.60;99130.50;5032622;28;20049;-82
2023/12/26 08:25:35;;;;;;;8.10;1.67;;;;;;;10.36;79.74;99133.13;5032685;28;20041;-80
2023/12/26 08:28:01;;;;;;;9.70;1.50;;;;;;;10.35;79.67;99141.97;5015018;28;20050;-82
2023/12/26 08:30:28;;;;;;;6.47;1.50;;;;;;;10.36;79.79;99143.66;5023464;28;20045;-81
2023/12/26 08:32:54;;;;;;;12.60;2.00;;;;;;;10.37;79.93;99158.50;5032490;28;20144;-82
2023/12/26 08:35:21;;;;;;;10.13;1.88;;;;;;;10.36;79.65;99169.97;5032270;28;20517;-83
2023/12/26 08:37:48;;;;;;;7.80;1.42;;;;;;;10.36;79.64;99169.97;5032169;28;20053;-84
2023/12/26 08:40:15;;;;;;;8.15;2.17;;;;;;;10.36;79.51;99180.50;5019805;28;20509;-82
2023/12/26 08:42:41;;;;;;;11.20;1.85;;;;;;;10.36;79.72;99177.88;5012144;28;20132;-81
2023/12/26 08:45:08;;;;;;;11.18;1.75;;;;;;;10.37;79.83;99190.91;5012157;28;20124;-82
2023/12/26 08:47:35;;;;;;;7.65;1.73;;;;;;;10.38;79.30;99194.38;5016081;28;20045;-82
2023/12/26 08:50:02;;;;;;;9.35;1.73;;;;;;;10.39;79.62;99206.63;5031831;28;20058;-80
2023/12/26 08:52:29;;;;;;;10.63;1.67;;;;;;;10.39;79.72;99204.81;5031110;28;20052;-83
2023/12/26 08:54:55;;;;;;;9.45;1.52;;;;;;;10.41;79.42;99199.44;5031919;28;20046;-83
2023/12/26 08:57:22;;;;;;;8.65;1.58;;;;;;;10.41;79.48;99210.81;5031629;28;20053;-81
2023/12/26 08:59:49;;;;;;;6.93;1.70;;;;;;;10.41;79.23;99204.72;5031550;28;20136;-83
2023/12/26 09:02:15;;;;;;;12.82;2.50;;;;;;;10.41;79.38;99209.97;5004691;28;20048;-82
2023/12/26 09:04:42;;;;;;;4.80;1.30;;;;;;;10.40;79.18;99205.66;4994768;28;20050;-83
2023/12/26 09:07:08;;;;;;;5.30;1.30;;;;;;;10.40;79.28;99214.38;4994706;28;20449;-83
2023/12/26 09:09:35;;;;;;;13.40;2.10;;;;;;;10.40;78.52;99210.91;5031236;28;20100;-81
2023/12/26 09:12:02;;;;;;;11.20;1.65;;;;;;;10.40;79.13;99206.47;5029742;28;20513;-80
2023/12/26 09:14:28;;;;;;;10.38;1.92;;;;;;;10.40;78.83;99218.81;5014047;28;20498;-83
2023/12/26 09:16:55;;;;;;;9.93;1.48;;;;;;;10.39;78.67;99217.13;5031784;28;20402;-83
2023/12/26 09:19:21;;;;;;;10.88;1.90;;;;;;;10.39;78.83;99225.03;5031502;28;20041;-84
2023/12/26 09:21:48;;;;;;;11.32;1.70;;;;;;;10.38;78.61;99233.84;5025598;28;20384;-81
2023/12/26 09:24:15;;;;;;;12.73;1.55;;;;;;;10.37;78.76;99242.69;5011810;28;20552;-83
2023/12/26 09:26:41;;;;;;;10.05;1.90;;;;;;;10.37;78.93;99238.28;4994192;28;20127;-82
2023/12/26 09:29:08;;;;;;;9.27;1.70;;;;;;;10.36;78.99;99243.63;5011564;28;20178;-81
2023/12/26 09:31:34;;;;;;;13.20;2.22;;;;;;;10.35;78.77;99260.38;5011361;28;20569;-81
2023/12/26 09:34:01;;;;;;;14.65;2.42;;;;;;;10.35;78.70;99268.25;5011761;28;20136;-81
2023/12/26 09:36:28;;;;;;;11.82;2.00;;;;;;;10.34;78.60;99272.66;5023527;28;20077;-80
2023/12/26 09:38:55;;;;;;;12.32;1.80;;;;;;;10.34;78.77;99277.94;5031145;28;20054;-81
2023/12/26 09:41:23;;;;;;;12.45;2.20;;;;;;;10.33;77.92;99284.13;5027457;28;20061;-81
2023/12/26 09:43:51;;;;;;;10.23;1.98;;;;;;;10.36;78.91;99285.72;5011916;28;20050;-84
2023/12/26 09:46:17;;;;;;;6.50;1.63;;;;;;;10.37;79.22;99283.00;5011532;28;20042;-82
2023/12/26 09:48:44;;;;;;;9.63;1.90;;;;;;;10.38;78.53;99283.81;5011500;28;20058;-81
2023/12/26 09:51:20;;;;;;;10.65;1.98;;;;;;;10.37;77.34;99288.25;5029511;28;20057;-83
2023/12/26 09:53:51;;;;;;;10.57;1.98;;;;;;;10.39;77.94;99296.06;5031053;28;20446;-83
2023/12/26 09:56:18;;;;;;;12.38;1.63;;;;;;;10.39;77.83;99304.78;5031281;28;20056;-83
2023/12/26 09:58:45;;;;;;;10.30;1.95;;;;;;;10.40;78.05;99305.63;5026587;28;20049;-83
2023/12/26 10:01:12;;;;;;;11.90;1.83;;;;;;;10.39;77.76;99311.84;5001575;28;20053;-82
2023/12/26 10:03:39;;;;;;;8.93;1.65;;;;;;;10.38;77.67;99334.69;5030842;28;20045;-81
2023/12/26 10:06:08;;;;;;;12.25;1.92;;;;;;;10.39;77.87;99330.28;5013320;28;20050;-82
2023/12/26 10:08:34;;;;;;;14.77;1.83;;;;;;;10.38;78.30;99332.03;5030668;28;20050;-82
2023/12/26 10:11:01;;;;;;;10.57;2.10;;;;;;;10.38;78.67;99326.78;5030772;28;20085;-81
2023/12/26 10:13:42;;;;;;;11.88;1.98;;;;;;;10.36;76.18;99328.66;5016077;28;20078;-82
2023/12/26 10:16:09;;;;;;;11.85;1.80;;;;;;;10.42;78.35;99337.94;5011065;28;20050;-83
2023/12/26 10:18:35;;;;;;;11.57;1.98;;;;;;;10.43;78.29;99342.25;5010658;28;20064;-81
2023/12/26 10:21:02;;;;;;;10.50;1.63;;;;;;;10.44;78.18;99344.00;4993514;28;20158;-81
2023/12/26 10:23:29;;;;;;;10.70;1.55;;;;;;;10.46;77.96;99339.47;5010676;28;20046;-82
2023/12/26 10:25:55;;;;;;;8.00;1.70;;;;;;;10.46;78.49;99344.75;5012322;28;20045;-82
2023/12/26 10:28:23;;;;;;;9.52;2.50;;;;;;;10.47;78.01;99351.69;5010478;28;20081;-81
2023/12/26 10:30:49;;;;;;;11.32;2.25;;;;;;;10.49;78.37;99360.34;4992784;28;20462;-81
2023/12/26 10:33:26;;;;;;;10.85;1.95;;;;;;;10.48;76.25;99355.16;5010695;28;20466;-81
2023/12/26 10:36:04;;;;;;;7.68;1.65;;;;;;;10.49;75.56;99359.47;5010794;28;20058;-82
2023/12/26 10:38:31;;;;;;;9.32;1.65;;;;;;;10.54;78.24;99357.41;4993011;28;20145;-82
2023/12/26 10:41:13;;;;;;;19.60;2.60;;;;;;;10.52;75.91;99370.69;5025284;28;20133;-79
2023/12/26 10:43:43;;;;;;;9.35;1.58;;;;;;;10.58;78.35;99358.06;5012550;28;20108;-82
2023/12/26 10:46:09;;;;;;;9.05;1.42;;;;;;;10.60;78.42;99366.69;5030115;28;20062;-81
2023/12/26 10:48:39;;;;;;;10.45;1.83;;;;;;;10.63;78.89;99353.34;5011598;28;20054;-82
2023/12/26 10:51:07;;;;;;;10.93;2.08;;;;;;;10.65;78.44;99368.09;5029641;28;20505;-82
2023/12/26 10:53:47;;;;;;;14.05;1.83;;;;;;;10.66;76.66;99356.63;5011113;28;20058;-81
2023/12/26 10:56:14;;;;;;;10.48;2.03;;;;;;;10.73;78.84;99364.97;5029627;28;20045;-81
2023/12/26 10:58:41;;;;;;;8.60;1.98;;;;;;;10.74;77.90;99364.06;5029838;28;20057;-82
2023/12/26 13:51:42;;;;;;;9.85;2.25;;;;;;;10.75;73.27;99539.50;5030299;28;20140;-81
2023/12/26 13:54:13;;;;;;;8.90;1.40;;;;;;;10.73;73.49;99524.72;5011961;28;20049;-82
2023/12/26 13:56:40;;;;;;;8.27;2.00;;;;;;;10.71;72.89;99534.50;5013875;28;20056;-79
2023/12/26 13:59:06;;;;;;;5.85;1.50;;;;;;;10.71;73.59;99542.38;4992673;28;20496;-80
2023/12/26 14:01:33;;;;;;;9.50;1.70;;;;;;;10.71;73.79;99537.13;5010869;28;20053;-80
2023/12/26 14:04:00;;;;;;;8.18;1.77;;;;;;;10.69;73.24;99537.22;4993733;28;20083;-81
2023/12/26 14:06:28;;;;;;;9.90;1.60;;;;;;;10.69;73.58;99548.59;5011373;28;20112;-81
2023/12/26 14:08:55;;;;;;;9.80;1.60;;;;;;;10.69;74.07;99560.91;5003059;28;20111;-81
2023/12/26 14:11:23;;;;;;;9.00;2.05;;;;;;;10.69;74.11;99559.13;5030617;28;20081;-80
2023/12/26 14:13:49;;;;;;;8.07;2.05;;;;;;;10.69;73.93;99567.03;5030710;28;20049;-81
2023/12/26 14:16:21;;;;;;;13.57;2.10;;;;;;;10.69;73.87;99574.94;5013144;28;20041;-79
2023/12/26 14:18:47;;;;;;;5.40;1.40;;;;;;;10.69;73.93;99574.94;5030516;28;20517;-81
2023/12/26 14:21:14;;;;;;;8.90;1.60;;;;;;;10.69;73.77;99576.69;5030568;28;20490;-82
2023/12/26 14:23:41;;;;;;;9.30;2.20;;;;;;;10.69;73.88;99595.13;5020312;28;20054;-81
2023/12/26 14:26:07;;;;;;;7.13;1.75;;;;;;;10.66;73.69;99590.91;5011365;28;20077;-81
2023/12/26 14:28:34;;;;;;;4.50;1.42;;;;;;;10.66;74.11;99598.78;5010690;28;20216;-83